createdAt,value
2018-09-12T00:00:47.788Z,102220.81
2018-09-12T00:01:48.508Z,102220.97
2018-09-12T00:02:49.187Z,102220.80
2018-09-12T00:03:49.852Z,102221.14
2018-09-12T00:04:50.446Z,102221.12
2018-09-12T00:05:51.047Z,102220.73
2018-09-12T00:06:51.684Z,102220.78
2018-09-12T00:07:52.241Z,102220.52
2018-09-12T00:08:53.917Z,102219.84
2018-09-12T00:09:51.953Z,102219.72
2018-09-12T00:10:52.443Z,102219.69
2018-09-12T00:11:54.014Z,102218.95
2018-09-12T00:12:54.701Z,102218.83
2018-09-12T00:13:54.337Z,102217.98
2018-09-12T00:15:02.258Z,102217.77
2018-09-12T00:15:55.584Z,102216.83
2018-09-12T00:16:57.320Z,102216.53
2018-09-12T00:17:57.322Z,102215.47
2018-09-12T00:18:57.893Z,102214.95
2018-09-12T00:19:58.399Z,102215.34
2018-09-12T00:20:58.996Z,102214.45
2018-09-12T00:21:59.653Z,102214.84
2018-09-12T00:22:11.010Z,102210.16
2018-09-12T00:23:12.551Z,102209.56
2018-09-12T00:24:13.211Z,102209.31
2018-09-12T00:25:13.729Z,102209.14
2018-09-12T00:26:14.170Z,102209.09
2018-09-12T00:27:14.669Z,102208.76
2018-09-12T00:28:15.311Z,102207.82
2018-09-12T00:29:15.837Z,102207.17
2018-09-12T00:30:16.471Z,102206.92
2018-09-12T00:31:17.413Z,102206.54
2018-09-12T00:32:17.860Z,102206.66
2018-09-12T00:33:18.330Z,102206.03
2018-09-12T00:34:18.799Z,102205.98
2018-09-12T00:35:19.514Z,102205.78
2018-09-12T00:36:20.070Z,102205.60
2018-09-12T00:37:20.532Z,102205.30
2018-09-12T00:38:21.500Z,102205.02
2018-09-12T00:39:22.104Z,102205.00
2018-09-12T00:40:22.611Z,102205.22
2018-09-12T00:41:23.191Z,102205.43
2018-09-12T00:42:24.172Z,102205.05
2018-09-12T00:43:24.669Z,102205.09
2018-09-12T00:44:25.198Z,102205.09
2018-09-12T00:45:25.920Z,102205.30
2018-09-12T00:46:25.893Z,102205.60
2018-09-12T00:47:26.613Z,102205.73
2018-09-12T00:48:27.247Z,102205.47
2018-09-12T00:49:27.824Z,102205.09
2018-09-12T00:50:28.611Z,102205.09
2018-09-12T00:51:29.062Z,102204.53
2018-09-12T00:52:29.611Z,102203.64
2018-09-12T00:53:30.070Z,102202.95
2018-09-12T00:54:30.922Z,102202.44
2018-09-12T00:55:31.612Z,102200.95
2018-09-12T00:56:32.102Z,102200.66
2018-09-12T00:57:32.809Z,102199.63
2018-09-12T00:58:33.260Z,102199.03
2018-09-12T00:59:33.834Z,102197.75
2018-09-12T01:00:34.812Z,102196.85
2018-09-12T01:01:35.337Z,102195.87
2018-09-12T01:02:35.879Z,102194.42
2018-09-12T01:03:36.289Z,102193.19
2018-09-12T01:04:36.769Z,102192.55
2018-09-12T01:04:45.133Z,102182.91
2018-09-12T01:05:45.548Z,102182.69
2018-09-12T01:06:46.550Z,102182.60
2018-09-12T01:07:47.178Z,102182.00
2018-09-12T01:08:47.818Z,102181.92
2018-09-12T01:09:48.419Z,102181.88
2018-09-12T01:10:49.056Z,102181.45
2018-09-12T01:11:49.593Z,102181.11
2018-09-12T01:12:50.279Z,102181.32
2018-09-12T01:13:50.873Z,102180.98
2018-09-12T01:14:51.488Z,102180.51
2018-09-12T01:15:52.278Z,102179.78
2018-09-12T01:16:52.761Z,102179.23
2018-09-12T01:17:53.464Z,102179.09
2018-09-12T01:18:54.088Z,102178.45
2018-09-12T01:19:54.589Z,102177.91
2018-09-12T01:20:55.206Z,102177.05
2018-09-12T01:21:55.774Z,102176.23
2018-09-12T01:22:56.245Z,102175.65
2018-09-12T01:23:56.755Z,102175.05
2018-09-12T01:24:57.293Z,102174.71
2018-09-12T01:25:58.020Z,102173.95
2018-09-12T01:26:58.455Z,102172.70
2018-09-12T01:27:58.897Z,102172.28
2018-09-12T01:28:59.512Z,102171.98
2018-09-12T01:30:00.014Z,102171.38
2018-09-12T01:31:00.263Z,102170.88
2018-09-12T01:32:00.874Z,102170.41
2018-09-12T01:33:01.533Z,102169.90
2018-09-12T01:34:02.185Z,102170.02
2018-09-12T01:35:02.829Z,102169.26
2018-09-12T01:36:03.457Z,102168.70
2018-09-12T01:37:04.071Z,102167.77
2018-09-12T01:38:04.593Z,102167.51
2018-09-12T01:39:05.139Z,102167.34
2018-09-12T01:40:05.699Z,102166.44
2018-09-12T01:41:06.281Z,102166.18
2018-09-12T01:42:06.804Z,102166.44
2018-09-12T01:43:07.331Z,102166.36
2018-09-12T01:44:07.792Z,102166.05
2018-09-12T01:45:08.310Z,102165.63
2018-09-12T01:46:08.845Z,102165.55
2018-09-12T01:47:10.343Z,102165.50
2018-09-12T01:48:09.871Z,102164.98
2018-09-12T01:49:10.369Z,102164.82
2018-09-12T01:50:10.911Z,102164.65
2018-09-12T01:50:30.959Z,102154.84
2018-09-12T01:51:31.538Z,102154.42
2018-09-12T01:52:32.049Z,102154.59
2018-09-12T01:53:32.666Z,102154.94
2018-09-12T01:54:33.201Z,102154.52
2018-09-12T01:55:33.759Z,102154.00
2018-09-12T01:56:34.348Z,102154.17
2018-09-12T01:57:34.820Z,102153.44
2018-09-12T01:58:35.386Z,102153.14
2018-09-12T01:59:36.040Z,102152.89
2018-09-12T02:00:36.589Z,102152.80
2018-09-12T02:01:37.222Z,102152.55
2018-09-12T02:02:38.089Z,102152.50
2018-09-12T02:03:38.644Z,102152.16
2018-09-12T02:04:39.229Z,102152.03
2018-09-12T02:05:39.789Z,102151.78
2018-09-12T02:06:40.430Z,102152.02
2018-09-12T02:07:40.960Z,102152.23
2018-09-12T02:08:41.493Z,102152.11
2018-09-12T02:09:41.972Z,102151.80
2018-09-12T02:10:42.587Z,102151.59
2018-09-12T02:11:43.108Z,102152.14
2018-09-12T02:12:43.436Z,102151.77
2018-09-12T02:13:44.206Z,102151.97
2018-09-12T02:14:44.951Z,102152.10
2018-09-12T02:15:44.998Z,102152.31
2018-09-12T02:16:45.693Z,102152.35
2018-09-12T02:17:46.323Z,102152.56
2018-09-12T02:18:47.012Z,102153.00
2018-09-12T02:19:47.837Z,102152.78
2018-09-12T02:20:48.311Z,102153.33
2018-09-12T02:21:48.505Z,102153.11
2018-09-12T02:22:48.909Z,102153.11
2018-09-12T02:23:49.391Z,102153.23
2018-09-12T02:24:50.127Z,102153.36
2018-09-12T02:25:50.725Z,102153.23
2018-09-12T02:26:50.861Z,102152.92
2018-09-12T02:27:51.543Z,102153.56
2018-09-12T02:28:52.277Z,102153.18
2018-09-12T02:29:52.393Z,102153.39
2018-09-12T02:30:53.120Z,102153.34
2018-09-12T02:31:53.689Z,102153.05
2018-09-12T02:32:54.178Z,102152.91
2018-09-12T02:33:53.609Z,102152.61
2018-09-12T02:34:54.870Z,102152.56
2018-09-12T02:35:03.375Z,102145.41
2018-09-12T02:36:04.107Z,102145.33
2018-09-12T02:37:04.657Z,102145.16
2018-09-12T02:38:05.485Z,102144.98
2018-09-12T02:39:05.609Z,102144.98
2018-09-12T02:40:06.123Z,102145.23
2018-09-12T02:41:06.771Z,102144.56
2018-09-12T02:42:07.662Z,102143.95
2018-09-12T02:43:08.352Z,102144.27
2018-09-12T02:44:08.890Z,102144.14
2018-09-12T02:45:09.604Z,102143.62
2018-09-12T02:46:09.796Z,102143.33
2018-09-12T02:47:10.459Z,102142.79
2018-09-12T02:48:11.020Z,102142.11
2018-09-12T02:49:11.117Z,102141.77
2018-09-12T02:50:11.748Z,102141.42
2018-09-12T02:51:12.337Z,102141.09
2018-09-12T02:52:12.463Z,102140.52
2018-09-12T02:53:13.105Z,102139.42
2018-09-12T02:54:13.656Z,102138.66
2018-09-12T02:55:14.119Z,102137.92
2018-09-12T02:56:14.685Z,102137.50
2018-09-12T02:57:15.374Z,102137.16
2018-09-12T02:58:16.117Z,102137.11
2018-09-12T02:59:16.705Z,102136.95
2018-09-12T03:00:17.339Z,102136.35
2018-09-12T03:01:17.965Z,102135.96
2018-09-12T03:02:17.590Z,102135.28
2018-09-12T03:03:18.797Z,102135.16
2018-09-12T03:04:19.715Z,102135.02
2018-09-12T03:05:20.489Z,102134.13
2018-09-12T03:06:21.007Z,102133.87
2018-09-12T03:07:21.608Z,102133.05
2018-09-12T03:08:22.218Z,102132.76
2018-09-12T03:09:22.883Z,102132.38
2018-09-12T03:10:22.958Z,102131.81
2018-09-12T03:11:23.568Z,102131.22
2018-09-12T03:12:24.182Z,102131.34
2018-09-12T03:13:24.764Z,102130.31
2018-09-12T03:14:25.566Z,102130.09
2018-09-12T03:15:26.187Z,102129.66
2018-09-12T03:16:26.810Z,102129.70
2018-09-12T03:17:27.449Z,102129.10
2018-09-12T03:18:28.115Z,102128.58
2018-09-12T03:19:28.715Z,102128.83
2018-09-12T03:19:37.081Z,102121.96
2018-09-12T03:20:38.750Z,102121.62
2018-09-12T03:21:38.228Z,102121.11
2018-09-12T03:22:39.830Z,102121.41
2018-09-12T03:23:40.335Z,102121.20
2018-09-12T03:24:40.578Z,102121.45
2018-09-12T03:25:40.940Z,102121.70
2018-09-12T03:26:41.451Z,102121.83
2018-09-12T03:27:42.103Z,102122.03
2018-09-12T03:28:42.929Z,102122.33
2018-09-12T03:29:43.558Z,102121.86
2018-09-12T03:30:44.088Z,102122.14
2018-09-12T03:31:44.687Z,102122.66
2018-09-12T03:32:45.252Z,102122.61
2018-09-12T03:33:45.951Z,102123.80
2018-09-12T03:34:46.466Z,102124.31
2018-09-12T03:35:46.512Z,102124.48
2018-09-12T03:36:47.339Z,102125.03
2018-09-12T03:37:47.988Z,102125.55
2018-09-12T03:38:48.750Z,102125.63
2018-09-12T03:39:48.374Z,102125.63
2018-09-12T03:40:49.874Z,102126.23
2018-09-12T03:41:50.391Z,102126.73
2018-09-12T03:42:50.832Z,102127.25
2018-09-12T03:43:51.343Z,102127.80
2018-09-12T03:44:51.905Z,102128.09
2018-09-12T03:45:52.353Z,102128.77
2018-09-12T03:46:52.814Z,102128.97
2018-09-12T03:47:53.658Z,102129.14
2018-09-12T03:48:54.180Z,102128.92
2018-09-12T03:49:54.655Z,102128.87
2018-09-12T03:50:55.140Z,102129.56
2018-09-12T03:51:55.782Z,102129.85
2018-09-12T03:52:56.258Z,102129.80
2018-09-12T03:53:56.727Z,102129.84
2018-09-12T03:54:57.315Z,102130.34
2018-09-12T03:55:57.757Z,102130.72
2018-09-12T03:56:58.339Z,102130.08
2018-09-12T03:57:57.931Z,102130.08
2018-09-12T03:58:59.675Z,102130.03
2018-09-12T04:00:00.201Z,102130.23
2018-09-12T04:01:00.728Z,102129.98
2018-09-12T04:02:00.835Z,102129.77
2018-09-12T04:03:01.617Z,102129.47
2018-09-12T04:04:02.229Z,102129.50
2018-09-12T04:05:02.736Z,102129.54
2018-09-12T04:05:11.100Z,102139.84
2018-09-12T04:06:12.575Z,102139.03
2018-09-12T04:07:13.147Z,102139.28
2018-09-12T04:08:13.705Z,102138.78
2018-09-12T04:09:14.577Z,102138.64
2018-09-12T04:10:14.012Z,102138.25
2018-09-12T04:11:15.522Z,102137.91
2018-09-12T04:12:16.237Z,102137.34
2018-09-12T04:13:15.858Z,102137.61
2018-09-12T04:14:17.587Z,102136.92
2018-09-12T04:15:18.201Z,102136.70
2018-09-12T04:16:18.886Z,102136.20
2018-09-12T04:17:19.585Z,102135.55
2018-09-12T04:18:20.187Z,102135.13
2018-09-12T04:19:20.732Z,102135.21
2018-09-12T04:20:21.667Z,102134.56
2018-09-12T04:21:22.158Z,102133.72
2018-09-12T04:22:22.811Z,102133.08
2018-09-12T04:23:23.384Z,102132.73
2018-09-12T04:24:24.472Z,102132.34
2018-09-12T04:25:23.973Z,102131.92
2018-09-12T04:26:25.530Z,102131.41
2018-09-12T04:27:26.031Z,102130.86
2018-09-12T04:28:26.542Z,102130.63
2018-09-12T04:29:27.117Z,102130.38
2018-09-12T04:30:27.148Z,102130.16
2018-09-12T04:31:27.762Z,102129.52
2018-09-12T04:32:28.463Z,102129.30
2018-09-12T04:33:29.229Z,102129.25
2018-09-12T04:34:29.906Z,102128.73
2018-09-12T04:35:30.321Z,102128.86
2018-09-12T04:36:30.859Z,102128.91
2018-09-12T04:37:31.391Z,102128.52
2018-09-12T04:38:32.273Z,102128.60
2018-09-12T04:39:32.847Z,102128.22
2018-09-12T04:40:33.395Z,102128.22
2018-09-12T04:41:34.035Z,102127.91
2018-09-12T04:42:34.834Z,102127.44
2018-09-12T04:43:34.436Z,102127.05
2018-09-12T04:44:35.920Z,102127.22
2018-09-12T04:45:36.412Z,102127.30
2018-09-12T04:46:36.944Z,102127.00
2018-09-12T04:47:37.261Z,102126.83
2018-09-12T04:48:37.832Z,102127.38
2018-09-12T04:49:37.187Z,102127.16
2018-09-12T04:50:38.804Z,102127.36
2018-09-12T04:51:39.259Z,102127.09
2018-09-12T04:52:39.703Z,102127.46
2018-09-12T04:52:48.200Z,102128.30
2018-09-12T04:53:49.092Z,102128.56
2018-09-12T04:54:48.639Z,102128.77
2018-09-12T04:55:50.213Z,102129.19
2018-09-12T04:56:50.993Z,102129.05
2018-09-12T04:57:51.458Z,102128.75
2018-09-12T04:58:52.079Z,102129.00
2018-09-12T04:59:52.887Z,102128.78
2018-09-12T05:00:52.377Z,102128.73
2018-09-12T05:01:54.031Z,102128.34
2018-09-12T05:02:54.744Z,102128.89
2018-09-12T05:03:54.794Z,102128.78
2018-09-12T05:04:55.652Z,102128.39
2018-09-12T05:05:56.098Z,102128.26
2018-09-12T05:06:56.699Z,102128.55
2018-09-12T05:07:57.158Z,102128.07
2018-09-12T05:08:57.703Z,102128.02
2018-09-12T05:09:58.196Z,102128.02
2018-09-12T05:10:58.866Z,102127.55
2018-09-12T05:11:59.517Z,102127.72
2018-09-12T05:12:59.973Z,102126.78
2018-09-12T05:14:01.913Z,102126.61
2018-09-12T05:15:01.709Z,102126.19
2018-09-12T05:16:02.466Z,102126.36
2018-09-12T05:17:02.350Z,102126.44
2018-09-12T05:18:04.306Z,102126.70
2018-09-12T05:19:05.123Z,102126.19
2018-09-12T05:20:05.836Z,102126.10
2018-09-12T05:21:06.349Z,102125.73
2018-09-12T05:22:06.953Z,102125.05
2018-09-12T05:23:07.766Z,102125.22
2018-09-12T05:24:08.552Z,102124.91
2018-09-12T05:25:09.182Z,102125.17
2018-09-12T05:26:09.811Z,102125.25
2018-09-12T05:27:10.285Z,102125.42
2018-09-12T05:28:10.801Z,102125.42
2018-09-12T05:29:11.368Z,102125.08
2018-09-12T05:30:11.851Z,102125.42
2018-09-12T05:31:12.441Z,102125.50
2018-09-12T05:32:12.975Z,102125.81
2018-09-12T05:33:13.705Z,102126.32
2018-09-12T05:34:14.288Z,102126.62
2018-09-12T05:35:14.793Z,102127.05
2018-09-12T05:36:15.340Z,102126.88
2018-09-12T05:37:14.845Z,102127.02
2018-09-12T05:38:16.367Z,102126.84
2018-09-12T05:39:16.486Z,102126.90
2018-09-12T05:39:24.886Z,102127.25
2018-09-12T05:40:26.405Z,102126.86
2018-09-12T05:41:27.220Z,102127.59
2018-09-12T05:42:28.079Z,102127.20
2018-09-12T05:43:28.604Z,102127.42
2018-09-12T05:44:29.301Z,102127.59
2018-09-12T05:45:29.934Z,102127.77
2018-09-12T05:46:30.598Z,102127.25
2018-09-12T05:47:31.450Z,102127.00
2018-09-12T05:48:31.932Z,102126.66
2018-09-12T05:49:32.030Z,102126.45
2018-09-12T05:50:32.560Z,102126.45
2018-09-12T05:51:33.037Z,102126.59
2018-09-12T05:52:33.539Z,102126.67
2018-09-12T05:53:37.265Z,102126.38
2018-09-12T05:54:34.809Z,102126.47
2018-09-12T05:55:35.420Z,102126.81
2018-09-12T05:56:36.036Z,102127.11
2018-09-12T05:57:36.564Z,102127.84
2018-09-12T05:58:37.120Z,102128.27
2018-09-12T05:59:37.535Z,102128.87
2018-09-12T06:00:38.153Z,102129.86
2018-09-12T06:01:39.058Z,102129.95
2018-09-12T06:02:39.585Z,102130.59
2018-09-12T06:03:40.167Z,102131.16
2018-09-12T06:04:40.671Z,102131.97
2018-09-12T06:05:41.422Z,102132.44
2018-09-12T06:06:41.399Z,102132.91
2018-09-12T06:07:42.300Z,102133.64
2018-09-12T06:08:44.260Z,102134.63
2018-09-12T06:09:45.063Z,102134.68
2018-09-12T06:10:45.779Z,102135.33
2018-09-12T06:11:46.271Z,102135.71
2018-09-12T06:12:46.852Z,102136.33
2018-09-12T06:13:47.773Z,102136.55
2018-09-12T06:14:47.520Z,102136.77
2018-09-12T06:15:48.006Z,102136.95
2018-09-12T06:16:49.576Z,102136.75
2018-09-12T06:17:50.293Z,102136.28
2018-09-12T06:18:50.837Z,102136.76
2018-09-12T06:19:51.297Z,102136.55
2018-09-12T06:20:52.055Z,102136.66
2018-09-12T06:21:52.535Z,102136.10
2018-09-12T06:22:52.847Z,102136.55
2018-09-12T06:23:52.311Z,102136.47
2018-09-12T06:24:53.833Z,102136.02
2018-09-12T06:25:53.451Z,102135.30
2018-09-12T06:26:55.080Z,102134.67
2018-09-12T06:27:58.531Z,102134.68
2018-09-12T06:28:55.639Z,102134.44
2018-09-12T06:29:06.602Z,102131.55
2018-09-12T06:30:06.589Z,102131.16
2018-09-12T06:31:06.125Z,102131.21
2018-09-12T06:32:07.774Z,102130.78
2018-09-12T06:33:08.477Z,102130.36
2018-09-12T06:34:09.036Z,102130.49
2018-09-12T06:35:09.588Z,102130.72
2018-09-12T06:36:10.119Z,102130.98
2018-09-12T06:37:10.678Z,102130.59
2018-09-12T06:38:11.246Z,102130.54
2018-09-12T06:39:12.028Z,102130.47
2018-09-12T06:40:11.626Z,102130.18
2018-09-12T06:41:13.122Z,102130.20
2018-09-12T06:42:14.038Z,102129.53
2018-09-12T06:43:14.585Z,102128.90
2018-09-12T06:44:15.177Z,102128.34
2018-09-12T06:45:15.662Z,102128.01
2018-09-12T06:46:16.345Z,102127.42
2018-09-12T06:47:16.968Z,102126.81
2018-09-12T06:48:16.934Z,102126.98
2018-09-12T06:49:17.423Z,102126.97
2018-09-12T06:50:17.991Z,102126.16
2018-09-12T06:51:18.394Z,102125.09
2018-09-12T06:52:19.167Z,102124.47
2018-09-12T06:53:19.254Z,102124.31
2018-09-12T06:54:19.853Z,102123.55
2018-09-12T06:55:20.336Z,102122.72
2018-09-12T06:56:21.005Z,102122.34
2018-09-12T06:57:21.854Z,102121.28
2018-09-12T06:58:22.684Z,102120.06
2018-09-12T06:59:23.225Z,102118.37
2018-09-12T07:00:24.173Z,102117.38
2018-09-12T07:01:23.986Z,102116.33
2018-09-12T07:02:25.875Z,102115.22
2018-09-12T07:03:26.640Z,102114.27
2018-09-12T07:04:27.224Z,102113.58
2018-09-12T07:05:28.111Z,102112.95
2018-09-12T07:06:28.870Z,102111.64
2018-09-12T07:07:29.661Z,102110.86
2018-09-12T07:08:29.279Z,102109.64
2018-09-12T07:09:31.117Z,102108.31
2018-09-12T07:10:31.741Z,102107.24
2018-09-12T07:11:32.422Z,102105.98
2018-09-12T07:12:33.146Z,102105.05
2018-09-12T07:13:33.722Z,102102.98
2018-09-12T07:14:34.310Z,102101.77
2018-09-12T07:15:35.056Z,102100.19
2018-09-12T07:15:43.401Z,102087.06
2018-09-12T07:16:44.861Z,102086.20
2018-09-12T07:17:44.507Z,102085.88
2018-09-12T07:18:46.315Z,102085.36
2018-09-12T07:19:47.054Z,102085.09
2018-09-12T07:20:47.162Z,102084.58
2018-09-12T07:21:47.831Z,102083.75
2018-09-12T07:22:48.494Z,102083.76
2018-09-12T07:23:49.215Z,102083.41
2018-09-12T07:24:49.806Z,102082.73
2018-09-12T07:25:49.154Z,102082.29
2018-09-12T07:26:50.748Z,102081.95
2018-09-12T07:27:51.532Z,102081.86
2018-09-12T07:28:51.897Z,102081.94
2018-09-12T07:29:52.805Z,102082.15
2018-09-12T07:30:53.256Z,102082.20
2018-09-12T07:31:53.840Z,102082.35
2018-09-12T07:32:54.383Z,102082.56
2018-09-12T07:33:55.024Z,102083.05
2018-09-12T07:34:55.594Z,102083.20
2018-09-12T07:35:56.203Z,102083.23
2018-09-12T07:36:56.924Z,102083.72
2018-09-12T07:37:57.721Z,102083.88
2018-09-12T07:38:58.196Z,102084.30
2018-09-12T07:39:58.803Z,102084.75
2018-09-12T07:40:59.372Z,102084.47
2018-09-12T07:41:59.825Z,102084.77
2018-09-12T07:43:00.756Z,102084.88
2018-09-12T07:44:01.139Z,102084.96
2018-09-12T07:45:01.523Z,102084.91
2018-09-12T07:46:02.031Z,102084.41
2018-09-12T07:47:02.471Z,102084.56
2018-09-12T07:48:02.937Z,102084.94
2018-09-12T07:49:03.354Z,102084.83
2018-09-12T07:50:02.837Z,102084.80
2018-09-12T07:51:04.261Z,102084.54
2018-09-12T07:52:05.047Z,102084.56
2018-09-12T07:53:05.596Z,102083.92
2018-09-12T07:54:06.021Z,102083.55
2018-09-12T07:55:06.582Z,102082.54
2018-09-12T07:56:06.150Z,102081.71
2018-09-12T07:57:06.555Z,102081.13
2018-09-12T07:58:08.138Z,102080.64
2018-09-12T07:59:08.697Z,102080.08
2018-09-12T08:00:09.247Z,102079.77
2018-09-12T08:01:08.625Z,102079.77
2018-09-12T08:02:10.125Z,102079.30
2018-09-12T08:03:10.628Z,102078.73
2018-09-12T08:04:11.193Z,102078.55
2018-09-12T08:04:19.780Z,102062.44
2018-09-12T08:05:20.085Z,102063.14
2018-09-12T08:06:21.889Z,102063.52
2018-09-12T08:07:22.454Z,102064.73
2018-09-12T08:08:21.872Z,102064.22
2018-09-12T08:09:23.355Z,102064.29
2018-09-12T08:10:23.744Z,102064.56
2018-09-12T08:11:24.305Z,102064.36
2018-09-12T08:12:24.766Z,102064.50
2018-09-12T08:13:25.212Z,102065.72
2018-09-12T08:14:25.657Z,102065.74
2018-09-12T08:15:26.175Z,102065.88
2018-09-12T08:16:26.569Z,102066.54
2018-09-12T08:17:26.924Z,102066.11
2018-09-12T08:18:27.339Z,102066.42
2018-09-12T08:19:27.824Z,102066.56
2018-09-12T08:20:28.361Z,102066.28
2018-09-12T08:21:28.794Z,102065.69
2018-09-12T08:22:29.155Z,102065.58
2018-09-12T08:23:28.609Z,102065.22
2018-09-12T08:24:30.138Z,102064.49
2018-09-12T08:25:30.526Z,102063.45
2018-09-12T08:26:30.995Z,102062.52
2018-09-12T08:27:31.347Z,102062.23
2018-09-12T08:28:31.764Z,102062.06
2018-09-12T08:29:32.264Z,102061.45
2018-09-12T08:30:32.942Z,102060.79
2018-09-12T08:31:33.352Z,102060.69
2018-09-12T08:32:33.674Z,102059.75
2018-09-12T08:33:34.029Z,102058.92
2018-09-12T08:34:34.452Z,102057.66
2018-09-12T08:35:34.776Z,102056.91
2018-09-12T08:36:35.386Z,102055.48
2018-09-12T08:37:34.498Z,102054.05
2018-09-12T08:38:35.988Z,102053.11
2018-09-12T08:39:36.698Z,102052.09
2018-09-12T08:40:37.046Z,102051.30
2018-09-12T08:41:37.471Z,102049.97
2018-09-12T08:42:38.126Z,102048.50
2018-09-12T08:43:37.121Z,102048.05
2018-09-12T08:44:38.542Z,102047.23
2018-09-12T08:45:38.921Z,102046.67
2018-09-12T08:46:39.534Z,102045.53
2018-09-12T08:47:39.733Z,102044.66
2018-09-12T08:48:39.257Z,102044.03
2018-09-12T08:49:40.653Z,102043.50
2018-09-12T08:50:40.982Z,102043.22
2018-09-12T08:51:41.355Z,102042.80
2018-09-12T08:52:40.951Z,102042.34
2018-09-12T08:53:42.266Z,102042.48
2018-09-12T08:53:50.674Z,102044.88
2018-09-12T08:54:51.777Z,102044.28
2018-09-12T08:55:52.299Z,102044.11
2018-09-12T08:56:52.748Z,102043.86
2018-09-12T08:57:51.745Z,102043.45
2018-09-12T08:58:53.180Z,102043.55
2018-09-12T08:59:53.583Z,102043.66
2018-09-12T09:00:54.109Z,102043.52
2018-09-12T09:01:54.534Z,102043.20
2018-09-12T09:02:54.943Z,102043.10
2018-09-12T09:03:55.413Z,102043.38
2018-09-12T09:04:54.849Z,102043.31
2018-09-12T09:05:56.257Z,102043.23
2018-09-12T09:06:56.831Z,102042.47
2018-09-12T09:07:57.406Z,102043.16
2018-09-12T09:08:57.935Z,102042.89
2018-09-12T09:09:58.546Z,102043.02
2018-09-12T09:10:58.937Z,102042.18
2018-09-12T09:11:59.743Z,102041.17
2018-09-12T09:13:00.216Z,102040.36
2018-09-12T09:14:00.872Z,102039.49
2018-09-12T09:15:01.468Z,102038.41
2018-09-12T09:16:01.881Z,102038.16
2018-09-12T09:17:02.376Z,102037.42
2018-09-12T09:18:02.800Z,102036.89
2018-09-12T09:19:03.256Z,102036.92
2018-09-12T09:20:03.633Z,102036.44
2018-09-12T09:21:04.028Z,102036.19
2018-09-12T09:22:04.484Z,102036.11
2018-09-12T09:23:05.318Z,102035.69
2018-09-12T09:24:05.644Z,102035.93
2018-09-12T09:25:06.248Z,102035.57
2018-09-12T09:26:06.595Z,102036.30
2018-09-12T09:27:07.201Z,102036.13
2018-09-12T09:28:07.654Z,102036.19
2018-09-12T09:29:08.085Z,102036.30
2018-09-12T09:30:08.722Z,102036.40
2018-09-12T09:31:09.166Z,102036.43
2018-09-12T09:32:09.904Z,102036.36
2018-09-12T09:33:10.677Z,102036.45
2018-09-12T09:34:11.633Z,102036.56
2018-09-12T09:35:12.559Z,102036.66
2018-09-12T09:36:11.949Z,102036.58
2018-09-12T09:37:13.383Z,102036.89
2018-09-12T09:38:13.836Z,102037.16
2018-09-12T09:39:13.320Z,102036.91
2018-09-12T09:40:15.287Z,102036.73
2018-09-12T09:41:15.671Z,102036.77
2018-09-12T09:41:25.738Z,102035.17
2018-09-12T09:42:27.065Z,102034.83
2018-09-12T09:43:27.448Z,102035.45
2018-09-12T09:44:27.839Z,102035.34
2018-09-12T09:45:28.438Z,102035.24
2018-09-12T09:46:27.848Z,102035.45
2018-09-12T09:47:29.240Z,102035.52
2018-09-12T09:48:29.759Z,102035.38
2018-09-12T09:49:29.058Z,102035.90
2018-09-12T09:50:30.601Z,102035.86
2018-09-12T09:51:30.994Z,102035.62
2018-09-12T09:52:30.380Z,102035.41
2018-09-12T09:53:31.784Z,102035.17
2018-09-12T09:54:32.252Z,102034.97
2018-09-12T09:55:31.599Z,102034.63
2018-09-12T09:56:32.967Z,102034.48
2018-09-12T09:57:33.136Z,102033.41
2018-09-12T09:58:33.452Z,102032.53
2018-09-12T09:59:33.742Z,102031.66
2018-09-12T10:00:34.100Z,102031.88
2018-09-12T10:01:34.763Z,102031.45
2018-09-12T10:02:35.185Z,102030.82
2018-09-12T10:03:36.022Z,102029.77
2018-09-12T10:04:36.547Z,102029.04
2018-09-12T10:05:36.962Z,102028.23
2018-09-12T10:06:37.830Z,102027.74
2018-09-12T10:07:38.198Z,102026.59
2018-09-12T10:08:38.581Z,102026.37
2018-09-12T10:09:39.182Z,102025.81
2018-09-12T10:10:39.556Z,102025.12
2018-09-12T10:11:39.973Z,102024.21
2018-09-12T10:12:40.506Z,102023.52
2018-09-12T10:13:40.848Z,102022.95
2018-09-12T10:14:41.527Z,102022.47
2018-09-12T10:15:41.922Z,102021.77
2018-09-12T10:16:41.963Z,102020.89
2018-09-12T10:17:42.304Z,102019.89
2018-09-12T10:18:42.691Z,102019.53
2018-09-12T10:19:43.163Z,102019.18
2018-09-12T10:20:43.649Z,102018.83
2018-09-12T10:21:43.973Z,102018.75
2018-09-12T10:22:44.373Z,102018.02
2018-09-12T10:23:44.778Z,102017.45
2018-09-12T10:24:45.146Z,102016.67
2018-09-12T10:25:45.520Z,102015.83
2018-09-12T10:26:46.074Z,102015.56
2018-09-12T10:27:46.204Z,102014.64
2018-09-12T10:28:47.052Z,102014.01
2018-09-12T10:28:55.105Z,102008.38
2018-09-12T10:29:56.459Z,102007.95
2018-09-12T10:30:56.873Z,102008.23
2018-09-12T10:31:57.402Z,102008.89
2018-09-12T10:32:57.797Z,102008.46
2018-09-12T10:33:58.181Z,102008.20
2018-09-12T10:34:58.468Z,102007.78
2018-09-12T10:35:58.884Z,102007.73
2018-09-12T10:36:59.334Z,102006.95
2018-09-12T10:37:59.693Z,102006.67
2018-09-12T10:39:00.431Z,102005.91
2018-09-12T10:40:00.870Z,102005.91
2018-09-12T10:41:01.444Z,102005.45
2018-09-12T10:42:00.995Z,102004.69
2018-09-12T10:43:02.502Z,102004.28
2018-09-12T10:44:02.874Z,102003.72
2018-09-12T10:45:02.936Z,102003.06
2018-09-12T10:46:03.379Z,102002.89
2018-09-12T10:47:03.746Z,102001.98
2018-09-12T10:48:04.178Z,102001.22
2018-09-12T10:49:04.635Z,102000.42
2018-09-12T10:50:04.930Z,102000.11
2018-09-12T10:51:05.386Z,101999.28
2018-09-12T10:52:05.795Z,101998.25
2018-09-12T10:53:06.314Z,101997.70
2018-09-12T10:54:06.912Z,101996.88
2018-09-12T10:55:07.368Z,101996.16
2018-09-12T10:56:07.694Z,101995.53
2018-09-12T10:57:08.100Z,101995.27
2018-09-12T10:58:08.581Z,101994.64
2018-09-12T10:59:08.989Z,101993.78
2018-09-12T11:00:08.788Z,101993.27
2018-09-12T11:01:10.267Z,101992.71
2018-09-12T11:02:10.708Z,101991.70
2018-09-12T11:03:11.146Z,101991.19
2018-09-12T11:04:11.590Z,101990.73
2018-09-12T11:05:11.264Z,101990.72
2018-09-12T11:06:12.617Z,101990.38
2018-09-12T11:07:12.304Z,101989.95
2018-09-12T11:08:13.752Z,101989.78
2018-09-12T11:09:14.216Z,101989.36
2018-09-12T11:10:14.677Z,101988.77
2018-09-12T11:11:15.088Z,101987.55
2018-09-12T11:12:15.465Z,101986.69
2018-09-12T11:13:15.894Z,101985.53
2018-09-12T11:14:16.387Z,101984.52
2018-09-12T11:15:16.771Z,101983.48
2018-09-12T11:16:16.595Z,101982.67
2018-09-12T11:17:18.195Z,101981.73
2018-09-12T11:17:26.234Z,101978.06
2018-09-12T11:18:27.864Z,101977.72